sensor_id;sensor_type;location;lat;lon;timestamp;temperature;humidity
43679;DHT22;29279;50.858;4.392;2023-02-01T00:01:55;8.50;99.90
43679;DHT22;29279;50.858;4.392;2023-02-01T00:04:21;8.50;99.90
43679;DHT22;29279;50.858;4.392;2023-02-01T00:06:47;8.50;99.90
43679;DHT22;29279;50.858;4.392;2023-02-01T00:09:13;8.50;99.90
43679;DHT22;29279;50.858;4.392;2023-02-01T00:11:39;8.40;99.90
43679;DHT22;29279;50.858;4.392;2023-02-01T00:14:05;8.50;99.90
43679;DHT22;29279;50.858;4.392;2023-02-01T00:16:31;8.50;99.90
43679;DHT22;29279;50.858;4.392;2023-02-01T00:19:09;8.50;99.90
43679;DHT22;29279;50.858;4.392;2023-02-01T00:21:35;8.50;99.90
43679;DHT22;29279;50.858;4.392;2023-02-01T00:24:01;8.50;99.90
43679;DHT22;29279;50.858;4.392;2023-02-01T00:26:34;8.40;99.90
43679;DHT22;29279;50.858;4.392;2023-02-01T00:29:02;8.30;99.90
43679;DHT22;29279;50.858;4.392;2023-02-01T00:31:29;8.30;99.90
43679;DHT22;29279;50.858;4.392;2023-02-01T00:33:54;8.40;99.90
43679;DHT22;29279;50.858;4.392;2023-02-01T00:36:20;8.40;99.90
43679;DHT22;29279;50.858;4.392;2023-02-01T00:38:46;8.40;99.90
43679;DHT22;29279;50.858;4.392;2023-02-01T00:41:18;8.30;99.90
43679;DHT22;29279;50.858;4.392;2023-02-01T00:43:44;8.40;99.90
43679;DHT22;29279;50.858;4.392;2023-02-01T00:46:11;8.40;99.90
43679;DHT22;29279;50.858;4.392;2023-02-01T00:48:37;8.50;99.90
43679;DHT22;29279;50.858;4.392;2023-02-01T00:51:05;8.40;99.90
43679;DHT22;29279;50.858;4.392;2023-02-01T00:53:31;8.40;99.90
43679;DHT22;29279;50.858;4.392;2023-02-01T00:55:57;8.30;99.90
43679;DHT22;29279;50.858;4.392;2023-02-01T00:58:23;8.20;99.90
43679;DHT22;29279;50.858;4.392;2023-02-01T01:03:34;8.20;99.90
43679;DHT22;29279;50.858;4.392;2023-02-01T01:06:01;8.30;99.90
43679;DHT22;29279;50.858;4.392;2023-02-01T01:08:27;8.30;99.90
43679;DHT22;29279;50.858;4.392;2023-02-01T01:10:53;8.30;99.90
43679;DHT22;29279;50.858;4.392;2023-02-01T01:13:19;8.20;99.90
43679;DHT22;29279;50.858;4.392;2023-02-01T01:15:45;8.20;99.90
43679;DHT22;29279;50.858;4.392;2023-02-01T01:18:11;8.10;99.90
43679;DHT22;29279;50.858;4.392;2023-02-01T01:20:39;8.20;99.90
43679;DHT22;29279;50.858;4.392;2023-02-01T01:23:05;8.10;99.90
43679;DHT22;29279;50.858;4.392;2023-02-01T01:25:31;8.10;99.90
43679;DHT22;29279;50.858;4.392;2023-02-01T01:27:57;8.20;99.90
43679;DHT22;29279;50.858;4.392;2023-02-01T01:30:23;8.20;99.90
43679;DHT22;29279;50.858;4.392;2023-02-01T01:32:49;8.20;99.90
43679;DHT22;29279;50.858;4.392;2023-02-01T01:35:15;8.20;99.90
43679;DHT22;29279;50.858;4.392;2023-02-01T01:37:40;8.10;99.90
43679;DHT22;29279;50.858;4.392;2023-02-01T01:40:07;8.20;99.90
43679;DHT22;29279;50.858;4.392;2023-02-01T01:42:38;8.20;99.90
43679;DHT22;29279;50.858;4.392;2023-02-01T01:45:05;8.10;99.90
43679;DHT22;29279;50.858;4.392;2023-02-01T01:47:37;8.00;99.90
43679;DHT22;29279;50.858;4.392;2023-02-01T01:50:07;8.00;99.90
43679;DHT22;29279;50.858;4.392;2023-02-01T01:52:34;8.00;99.90
43679;DHT22;29279;50.858;4.392;2023-02-01T01:55:00;7.90;99.90
43679;DHT22;29279;50.858;4.392;2023-02-01T01:57:30;8.00;99.90
43679;DHT22;29279;50.858;4.392;2023-02-01T02:00:18;8.00;99.90
43679;DHT22;29279;50.858;4.392;2023-02-01T02:02:47;8.00;99.90
43679;DHT22;29279;50.858;4.392;2023-02-01T02:05:14;8.00;99.90
43679;DHT22;29279;50.858;4.392;2023-02-01T02:07:43;8.00;99.90
43679;DHT22;29279;50.858;4.392;2023-02-01T02:10:11;8.00;99.90
43679;DHT22;29279;50.858;4.392;2023-02-01T02:12:43;8.00;99.90
43679;DHT22;29279;50.858;4.392;2023-02-01T02:15:12;7.90;99.90
43679;DHT22;29279;50.858;4.392;2023-02-01T02:17:58;7.90;99.90
43679;DHT22;29279;50.858;4.392;2023-02-01T02:39:36;7.70;99.90
43679;DHT22;29279;50.858;4.392;2023-02-01T02:42:14;7.80;99.90
43679;DHT22;29279;50.858;4.392;2023-02-01T02:50:37;7.80;99.90
43679;DHT22;29279;50.858;4.392;2023-02-01T02:53:47;7.70;99.90
43679;DHT22;29279;50.858;4.392;2023-02-01T02:56:28;7.60;99.90
43679;DHT22;29279;50.858;4.392;2023-02-01T02:59:16;7.50;99.90
43679;DHT22;29279;50.858;4.392;2023-02-01T03:02:03;7.40;99.90
43679;DHT22;29279;50.858;4.392;2023-02-01T03:04:52;7.40;99.90
43679;DHT22;29279;50.858;4.392;2023-02-01T03:07:57;7.30;99.90
43679;DHT22;29279;50.858;4.392;2023-02-01T03:13:07;7.20;99.90
43679;DHT22;29279;50.858;4.392;2023-02-01T03:15:49;7.30;99.90
43679;DHT22;29279;50.858;4.392;2023-02-01T03:18:47;7.20;99.90
43679;DHT22;29279;50.858;4.392;2023-02-01T03:21:14;7.20;99.90
43679;DHT22;29279;50.858;4.392;2023-02-01T03:23:42;7.10;99.90
43679;DHT22;29279;50.858;4.392;2023-02-01T03:26:13;7.20;99.90
43679;DHT22;29279;50.858;4.392;2023-02-01T03:28:48;7.20;99.90
43679;DHT22;29279;50.858;4.392;2023-02-01T03:31:15;7.10;99.90
43679;DHT22;29279;50.858;4.392;2023-02-01T03:33:41;7.10;99.90
43679;DHT22;29279;50.858;4.392;2023-02-01T03:42:24;7.10;99.90
43679;DHT22;29279;50.858;4.392;2023-02-01T03:44:55;7.10;99.90
43679;DHT22;29279;50.858;4.392;2023-02-01T03:47:29;7.00;99.90
43679;DHT22;29279;50.858;4.392;2023-02-01T03:49:57;7.10;99.90
43679;DHT22;29279;50.858;4.392;2023-02-01T03:52:47;6.90;99.90
43679;DHT22;29279;50.858;4.392;2023-02-01T03:55:15;7.00;99.90
43679;DHT22;29279;50.858;4.392;2023-02-01T03:57:46;6.90;99.90
43679;DHT22;29279;50.858;4.392;2023-02-01T04:00:19;6.90;99.90
43679;DHT22;29279;50.858;4.392;2023-02-01T04:02:47;6.90;99.90
43679;DHT22;29279;50.858;4.392;2023-02-01T04:05:13;6.90;99.90
43679;DHT22;29279;50.858;4.392;2023-02-01T04:07:39;7.00;99.90
43679;DHT22;29279;50.858;4.392;2023-02-01T04:10:05;7.00;99.90
43679;DHT22;29279;50.858;4.392;2023-02-01T04:12:31;6.90;99.90
43679;DHT22;29279;50.858;4.392;2023-02-01T04:14:56;6.90;99.90
43679;DHT22;29279;50.858;4.392;2023-02-01T04:17:22;6.90;99.90
43679;DHT22;29279;50.858;4.392;2023-02-01T04:19:48;6.90;99.90
43679;DHT22;29279;50.858;4.392;2023-02-01T04:22:13;7.00;99.90
43679;DHT22;29279;50.858;4.392;2023-02-01T04:24:39;6.90;99.90
43679;DHT22;29279;50.858;4.392;2023-02-01T04:27:05;6.80;99.90
43679;DHT22;29279;50.858;4.392;2023-02-01T04:29:30;6.70;99.90
43679;DHT22;29279;50.858;4.392;2023-02-01T04:31:56;6.60;99.90
43679;DHT22;29279;50.858;4.392;2023-02-01T04:34:21;6.50;99.90
43679;DHT22;29279;50.858;4.392;2023-02-01T04:36:48;6.50;99.90
43679;DHT22;29279;50.858;4.392;2023-02-01T04:39:14;6.40;99.90
43679;DHT22;29279;50.858;4.392;2023-02-01T04:41:40;6.40;99.90
43679;DHT22;29279;50.858;4.392;2023-02-01T04:44:06;6.40;99.90
43679;DHT22;29279;50.858;4.392;2023-02-01T04:46:32;6.40;99.90
43679;DHT22;29279;50.858;4.392;2023-02-01T04:48:57;6.50;99.90
43679;DHT22;29279;50.858;4.392;2023-02-01T04:51:23;6.40;99.90
43679;DHT22;29279;50.858;4.392;2023-02-01T04:53:48;6.50;99.90
43679;DHT22;29279;50.858;4.392;2023-02-01T04:56:14;6.40;99.90
43679;DHT22;29279;50.858;4.392;2023-02-01T04:58:40;6.40;99.90
43679;DHT22;29279;50.858;4.392;2023-02-01T05:01:06;6.30;99.90
43679;DHT22;29279;50.858;4.392;2023-02-01T05:03:33;6.30;99.90
43679;DHT22;29279;50.858;4.392;2023-02-01T05:05:59;6.30;99.90
43679;DHT22;29279;50.858;4.392;2023-02-01T05:08:25;6.40;99.90
43679;DHT22;29279;50.858;4.392;2023-02-01T05:10:52;6.40;99.90
43679;DHT22;29279;50.858;4.392;2023-02-01T05:13:18;6.40;99.90
43679;DHT22;29279;50.858;4.392;2023-02-01T05:16:02;6.40;99.90
43679;DHT22;29279;50.858;4.392;2023-02-01T05:18:28;6.50;99.90
43679;DHT22;29279;50.858;4.392;2023-02-01T05:20:53;6.50;99.90
43679;DHT22;29279;50.858;4.392;2023-02-01T05:23:20;6.50;99.90
43679;DHT22;29279;50.858;4.392;2023-02-01T05:25:46;6.40;99.90
43679;DHT22;29279;50.858;4.392;2023-02-01T05:28:11;6.30;99.90
43679;DHT22;29279;50.858;4.392;2023-02-01T05:30:37;6.30;99.90
43679;DHT22;29279;50.858;4.392;2023-02-01T05:33:03;6.30;99.90
43679;DHT22;29279;50.858;4.392;2023-02-01T05:35:29;6.30;99.90
43679;DHT22;29279;50.858;4.392;2023-02-01T05:37:55;6.20;99.90
43679;DHT22;29279;50.858;4.392;2023-02-01T05:40:21;6.20;99.90
43679;DHT22;29279;50.858;4.392;2023-02-01T05:42:47;6.20;99.90
43679;DHT22;29279;50.858;4.392;2023-02-01T05:45:12;6.10;99.90
43679;DHT22;29279;50.858;4.392;2023-02-01T05:47:38;6.00;99.90
43679;DHT22;29279;50.858;4.392;2023-02-01T05:50:04;5.90;99.90
43679;DHT22;29279;50.858;4.392;2023-02-01T05:52:30;5.80;99.90
43679;DHT22;29279;50.858;4.392;2023-02-01T05:54:56;5.80;99.90
43679;DHT22;29279;50.858;4.392;2023-02-01T05:57:22;5.80;99.90
43679;DHT22;29279;50.858;4.392;2023-02-01T05:59:47;5.70;99.90
43679;DHT22;29279;50.858;4.392;2023-02-01T06:02:15;5.60;99.90
43679;DHT22;29279;50.858;4.392;2023-02-01T06:04:41;5.50;99.90
43679;DHT22;29279;50.858;4.392;2023-02-01T06:07:08;5.50;99.90
43679;DHT22;29279;50.858;4.392;2023-02-01T06:09:36;5.50;99.90
43679;DHT22;29279;50.858;4.392;2023-02-01T06:12:03;5.50;99.90
43679;DHT22;29279;50.858;4.392;2023-02-01T06:14:28;5.50;99.90
43679;DHT22;29279;50.858;4.392;2023-02-01T06:16:55;5.50;99.90
43679;DHT22;29279;50.858;4.392;2023-02-01T06:19:21;5.60;99.90
43679;DHT22;29279;50.858;4.392;2023-02-01T06:21:47;5.70;99.90
43679;DHT22;29279;50.858;4.392;2023-02-01T06:24:13;5.60;99.90
43679;DHT22;29279;50.858;4.392;2023-02-01T06:26:39;5.60;99.90
43679;DHT22;29279;50.858;4.392;2023-02-01T06:29:06;5.60;99.90
43679;DHT22;29279;50.858;4.392;2023-02-01T06:31:32;5.60;99.90
43679;DHT22;29279;50.858;4.392;2023-02-01T06:33:58;5.60;99.90
43679;DHT22;29279;50.858;4.392;2023-02-01T06:36:23;5.70;99.90
43679;DHT22;29279;50.858;4.392;2023-02-01T06:38:49;5.70;99.90
43679;DHT22;29279;50.858;4.392;2023-02-01T06:41:15;5.70;99.90
43679;DHT22;29279;50.858;4.392;2023-02-01T06:43:41;5.70;99.90
43679;DHT22;29279;50.858;4.392;2023-02-01T06:46:09;5.60;99.90
43679;DHT22;29279;50.858;4.392;2023-02-01T06:48:36;5.60;99.90
43679;DHT22;29279;50.858;4.392;2023-02-01T06:51:02;5.60;99.90
43679;DHT22;29279;50.858;4.392;2023-02-01T06:53:28;5.60;99.90
43679;DHT22;29279;50.858;4.392;2023-02-01T06:55:59;5.60;99.90
43679;DHT22;29279;50.858;4.392;2023-02-01T06:58:31;5.50;99.90
43679;DHT22;29279;50.858;4.392;2023-02-01T07:00:57;5.50;99.90
43679;DHT22;29279;50.858;4.392;2023-02-01T07:03:23;5.50;99.90
43679;DHT22;29279;50.858;4.392;2023-02-01T07:05:49;5.50;99.90
43679;DHT22;29279;50.858;4.392;2023-02-01T07:08:15;5.50;99.90
43679;DHT22;29279;50.858;4.392;2023-02-01T07:10:40;5.60;99.90
43679;DHT22;29279;50.858;4.392;2023-02-01T07:13:06;5.60;99.90
43679;DHT22;29279;50.858;4.392;2023-02-01T07:15:32;5.50;99.90
43679;DHT22;29279;50.858;4.392;2023-02-01T07:17:57;5.50;99.90
43679;DHT22;29279;50.858;4.392;2023-02-01T07:20:23;5.40;99.90
43679;DHT22;29279;50.858;4.392;2023-02-01T07:22:54;5.50;99.90
43679;DHT22;29279;50.858;4.392;2023-02-01T07:25:20;5.50;99.90
43679;DHT22;29279;50.858;4.392;2023-02-01T07:27:46;5.50;99.90
43679;DHT22;29279;50.858;4.392;2023-02-01T07:30:12;5.50;99.90
43679;DHT22;29279;50.858;4.392;2023-02-01T07:32:38;5.50;99.90
43679;DHT22;29279;50.858;4.392;2023-02-01T07:35:03;5.50;99.90
43679;DHT22;29279;50.858;4.392;2023-02-01T07:37:29;5.60;99.90
43679;DHT22;29279;50.858;4.392;2023-02-01T07:39:56;5.70;99.90
43679;DHT22;29279;50.858;4.392;2023-02-01T07:42:21;5.70;99.90
43679;DHT22;29279;50.858;4.392;2023-02-01T07:44:47;5.70;99.90
43679;DHT22;29279;50.858;4.392;2023-02-01T07:47:13;5.70;99.90
43679;DHT22;29279;50.858;4.392;2023-02-01T07:49:38;5.80;99.90
43679;DHT22;29279;50.858;4.392;2023-02-01T07:52:04;6.00;99.90
43679;DHT22;29279;50.858;4.392;2023-02-01T07:54:30;6.20;99.90
43679;DHT22;29279;50.858;4.392;2023-02-01T07:56:56;6.40;99.90
43679;DHT22;29279;50.858;4.392;2023-02-01T07:59:21;6.50;99.90
43679;DHT22;29279;50.858;4.392;2023-02-01T08:01:47;6.50;99.90
43679;DHT22;29279;50.858;4.392;2023-02-01T08:04:13;6.40;99.90
43679;DHT22;29279;50.858;4.392;2023-02-01T08:06:39;6.40;99.90
43679;DHT22;29279;50.858;4.392;2023-02-01T08:09:06;6.50;99.90
43679;DHT22;29279;50.858;4.392;2023-02-01T08:11:33;6.40;99.90
43679;DHT22;29279;50.858;4.392;2023-02-01T08:13:59;6.40;99.90
43679;DHT22;29279;50.858;4.392;2023-02-01T08:16:25;6.40;99.90
43679;DHT22;29279;50.858;4.392;2023-02-01T08:18:52;6.40;99.90
43679;DHT22;29279;50.858;4.392;2023-02-01T08:21:20;6.50;99.90
43679;DHT22;29279;50.858;4.392;2023-02-01T08:23:47;6.50;99.90
43679;DHT22;29279;50.858;4.392;2023-02-01T08:26:31;6.40;99.90
43679;DHT22;29279;50.858;4.392;2023-02-01T08:29:00;6.40;99.90
43679;DHT22;29279;50.858;4.392;2023-02-01T08:31:27;6.30;99.90
43679;DHT22;29279;50.858;4.392;2023-02-01T08:33:58;6.20;99.90
43679;DHT22;29279;50.858;4.392;2023-02-01T08:36:26;6.20;99.90
43679;DHT22;29279;50.858;4.392;2023-02-01T08:38:52;6.30;99.90
43679;DHT22;29279;50.858;4.392;2023-02-01T08:41:20;6.20;99.90
43679;DHT22;29279;50.858;4.392;2023-02-01T08:43:47;6.30;99.90
43679;DHT22;29279;50.858;4.392;2023-02-01T08:46:13;6.50;99.90
43679;DHT22;29279;50.858;4.392;2023-02-01T08:48:39;6.80;99.90
43679;DHT22;29279;50.858;4.392;2023-02-01T08:51:07;7.00;99.90
43679;DHT22;29279;50.858;4.392;2023-02-01T08:53:33;7.00;99.90
43679;DHT22;29279;50.858;4.392;2023-02-01T08:55:59;6.90;99.90
43679;DHT22;29279;50.858;4.392;2023-02-01T08:58:26;6.90;99.90
43679;DHT22;29279;50.858;4.392;2023-02-01T09:00:51;6.90;99.90
43679;DHT22;29279;50.858;4.392;2023-02-01T09:03:17;7.00;99.90
43679;DHT22;29279;50.858;4.392;2023-02-01T09:05:43;7.00;99.90
43679;DHT22;29279;50.858;4.392;2023-02-01T09:08:11;7.20;99.90
43679;DHT22;29279;50.858;4.392;2023-02-01T09:10:39;7.40;99.90
43679;DHT22;29279;50.858;4.392;2023-02-01T09:13:09;7.70;99.90
43679;DHT22;29279;50.858;4.392;2023-02-01T09:15:35;8.10;99.90
43679;DHT22;29279;50.858;4.392;2023-02-01T09:18:00;9.00;99.90
43679;DHT22;29279;50.858;4.392;2023-02-01T09:20:26;9.40;99.90
43679;DHT22;29279;50.858;4.392;2023-02-01T09:22:54;9.60;99.90
43679;DHT22;29279;50.858;4.392;2023-02-01T09:25:20;10.10;99.90
43679;DHT22;29279;50.858;4.392;2023-02-01T09:27:45;11.00;99.90
43679;DHT22;29279;50.858;4.392;2023-02-01T09:30:11;11.80;99.90
43679;DHT22;29279;50.858;4.392;2023-02-01T09:32:37;12.00;99.90
43679;DHT22;29279;50.858;4.392;2023-02-01T09:35:03;11.90;99.90
43679;DHT22;29279;50.858;4.392;2023-02-01T09:37:29;12.00;99.90
43679;DHT22;29279;50.858;4.392;2023-02-01T09:39:54;12.30;99.90
43679;DHT22;29279;50.858;4.392;2023-02-01T09:42:46;12.90;99.90
43679;DHT22;29279;50.858;4.392;2023-02-01T09:45:39;13.30;99.90
43679;DHT22;29279;50.858;4.392;2023-02-01T09:48:17;14.00;99.90
43679;DHT22;29279;50.858;4.392;2023-02-01T09:50:53;14.50;99.90
43679;DHT22;29279;50.858;4.392;2023-02-01T09:53:37;15.10;99.90
43679;DHT22;29279;50.858;4.392;2023-02-01T09:58:47;15.90;99.90
43679;DHT22;29279;50.858;4.392;2023-02-01T10:01:19;16.10;99.90
43679;DHT22;29279;50.858;4.392;2023-02-01T10:03:45;16.50;98.90
43679;DHT22;29279;50.858;4.392;2023-02-01T10:06:30;16.60;98.30
43679;DHT22;29279;50.858;4.392;2023-02-01T10:12:17;16.90;97.30
43679;DHT22;29279;50.858;4.392;2023-02-01T10:24:07;16.00;97.40
43679;DHT22;29279;50.858;4.392;2023-02-01T10:26:44;16.20;97.20
43679;DHT22;29279;50.858;4.392;2023-02-01T10:29:20;17.10;96.10
43679;DHT22;29279;50.858;4.392;2023-02-01T10:31:46;17.20;95.50
43679;DHT22;29279;50.858;4.392;2023-02-01T10:34:22;17.30;95.50
43679;DHT22;29279;50.858;4.392;2023-02-01T10:36:52;17.30;95.20
43679;DHT22;29279;50.858;4.392;2023-02-01T10:39:18;17.50;94.80
43679;DHT22;29279;50.858;4.392;2023-02-01T10:41:44;17.30;94.60
43679;DHT22;29279;50.858;4.392;2023-02-01T10:44:25;17.20;94.70
43679;DHT22;29279;50.858;4.392;2023-02-01T10:46:51;17.40;94.50
43679;DHT22;29279;50.858;4.392;2023-02-01T10:52:20;18.10;93.50
43679;DHT22;29279;50.858;4.392;2023-02-01T10:54:53;18.60;93.10
43679;DHT22;29279;50.858;4.392;2023-02-01T10:57:24;18.70;92.50
43679;DHT22;29279;50.858;4.392;2023-02-01T10:59:51;18.60;92.40
43679;DHT22;29279;50.858;4.392;2023-02-01T11:02:31;18.80;92.30
43679;DHT22;29279;50.858;4.392;2023-02-01T11:05:03;17.70;92.50
43679;DHT22;29279;50.858;4.392;2023-02-01T11:07:29;16.40;93.60
43679;DHT22;29279;50.858;4.392;2023-02-01T11:09:55;15.20;94.70
43679;DHT22;29279;50.858;4.392;2023-02-01T11:12:36;14.70;95.70
43679;DHT22;29279;50.858;4.392;2023-02-01T11:15:19;14.70;96.00
43679;DHT22;29279;50.858;4.392;2023-02-01T11:17:49;14.50;96.40
43679;DHT22;29279;50.858;4.392;2023-02-01T11:22:57;14.30;97.00
43679;DHT22;29279;50.858;4.392;2023-02-01T11:25:23;14.00;97.20
43679;DHT22;29279;50.858;4.392;2023-02-01T11:27:50;14.40;97.20
43679;DHT22;29279;50.858;4.392;2023-02-01T11:30:41;14.80;96.50
43679;DHT22;29279;50.858;4.392;2023-02-01T11:33:12;14.50;96.70
43679;DHT22;29279;50.858;4.392;2023-02-01T11:35:39;13.90;97.40
43679;DHT22;29279;50.858;4.392;2023-02-01T11:40:44;13.00;98.60
43679;DHT22;29279;50.858;4.392;2023-02-01T11:45:41;12.60;99.40
43679;DHT22;29279;50.858;4.392;2023-02-01T11:48:18;12.60;99.40
43679;DHT22;29279;50.858;4.392;2023-02-01T11:50:45;12.30;99.80
43679;DHT22;29279;50.858;4.392;2023-02-01T11:53:25;12.40;99.90
43679;DHT22;29279;50.858;4.392;2023-02-01T11:56:11;12.20;99.90
43679;DHT22;29279;50.858;4.392;2023-02-01T12:04:42;15.00;97.20
43679;DHT22;29279;50.858;4.392;2023-02-01T12:07:46;15.20;96.00
43679;DHT22;29279;50.858;4.392;2023-02-01T12:13:04;13.50;97.70
43679;DHT22;29279;50.858;4.392;2023-02-01T12:18:28;13.30;98.30
43679;DHT22;29279;50.858;4.392;2023-02-01T12:24:42;16.20;94.70
43679;DHT22;29279;50.858;4.392;2023-02-01T12:27:03;17.50;93.30
43679;DHT22;29279;50.858;4.392;2023-02-01T12:32:40;16.60;92.90
43679;DHT22;29279;50.858;4.392;2023-02-01T12:38:04;16.90;92.20
43679;DHT22;29279;50.858;4.392;2023-02-01T12:43:46;16.50;92.10
43679;DHT22;29279;50.858;4.392;2023-02-01T12:46:43;15.50;93.40
43679;DHT22;29279;50.858;4.392;2023-02-01T12:49:22;15.80;92.90
43679;DHT22;29279;50.858;4.392;2023-02-01T12:51:55;15.50;93.00
43679;DHT22;29279;50.858;4.392;2023-02-01T12:54:38;16.70;92.20
43679;DHT22;29279;50.858;4.392;2023-02-01T12:57:13;17.10;91.60
43679;DHT22;29279;50.858;4.392;2023-02-01T12:59:49;18.20;90.70
43679;DHT22;29279;50.858;4.392;2023-02-01T13:02:42;17.30;91.00
43679;DHT22;29279;50.858;4.392;2023-02-01T13:05:19;16.50;91.60
43679;DHT22;29279;50.858;4.392;2023-02-01T13:07:55;16.80;91.40
43679;DHT22;29279;50.858;4.392;2023-02-01T13:10:45;16.60;91.40
43679;DHT22;29279;50.858;4.392;2023-02-01T13:15:58;16.00;91.80
43679;DHT22;29279;50.858;4.392;2023-02-01T13:18:34;15.00;92.60
43679;DHT22;29279;50.858;4.392;2023-02-01T13:21:13;14.10;93.50
43679;DHT22;29279;50.858;4.392;2023-02-01T13:23:40;14.60;93.50
43679;DHT22;29279;50.858;4.392;2023-02-01T13:26:06;14.90;93.30
43679;DHT22;29279;50.858;4.392;2023-02-01T13:28:47;16.10;92.10
43679;DHT22;29279;50.858;4.392;2023-02-01T13:31:33;15.30;92.60
43679;DHT22;29279;50.858;4.392;2023-02-01T13:42:54;15.40;93.00
43679;DHT22;29279;50.858;4.392;2023-02-01T13:45:26;15.50;92.70
43679;DHT22;29279;50.858;4.392;2023-02-01T13:47:55;15.00;93.20
43679;DHT22;29279;50.858;4.392;2023-02-01T13:53:00;14.50;93.60
43679;DHT22;29279;50.858;4.392;2023-02-01T14:03:52;18.00;90.50
43679;DHT22;29279;50.858;4.392;2023-02-01T14:06:39;18.50;90.00
43679;DHT22;29279;50.858;4.392;2023-02-01T14:11:39;16.00;91.80
43679;DHT22;29279;50.858;4.392;2023-02-01T14:16:40;17.40;90.90
43679;DHT22;29279;50.858;4.392;2023-02-01T14:19:25;17.30;91.10
43679;DHT22;29279;50.858;4.392;2023-02-01T14:22:00;16.20;91.60
43679;DHT22;29279;50.858;4.392;2023-02-01T14:24:35;14.60;93.20
43679;DHT22;29279;50.858;4.392;2023-02-01T14:27:17;13.50;94.90
43679;DHT22;29279;50.858;4.392;2023-02-01T14:29:51;12.80;95.70
43679;DHT22;29279;50.858;4.392;2023-02-01T14:32:30;12.40;96.50
43679;DHT22;29279;50.858;4.392;2023-02-01T14:35:00;12.10;97.40
43679;DHT22;29279;50.858;4.392;2023-02-01T14:37:30;11.70;98.10
43679;DHT22;29279;50.858;4.392;2023-02-01T14:40:03;11.40;99.20
43679;DHT22;29279;50.858;4.392;2023-02-01T14:47:42;11.00;99.90
43679;DHT22;29279;50.858;4.392;2023-02-01T14:55:30;10.80;99.90
43679;DHT22;29279;50.858;4.392;2023-02-01T14:58:01;10.80;99.90
43679;DHT22;29279;50.858;4.392;2023-02-01T15:00:29;10.80;99.90
43679;DHT22;29279;50.858;4.392;2023-02-01T15:03:15;10.80;99.90
43679;DHT22;29279;50.858;4.392;2023-02-01T15:05:42;10.60;99.90
43679;DHT22;29279;50.858;4.392;2023-02-01T15:08:15;10.50;99.90
43679;DHT22;29279;50.858;4.392;2023-02-01T15:10:45;10.50;99.90
43679;DHT22;29279;50.858;4.392;2023-02-01T15:13:25;10.40;99.90
43679;DHT22;29279;50.858;4.392;2023-02-01T15:16:11;10.40;99.90
43679;DHT22;29279;50.858;4.392;2023-02-01T15:18:37;10.20;99.90
43679;DHT22;29279;50.858;4.392;2023-02-01T15:21:05;10.10;99.90
43679;DHT22;29279;50.858;4.392;2023-02-01T15:23:31;10.20;99.90
43679;DHT22;29279;50.858;4.392;2023-02-01T15:25:57;10.30;99.90
43679;DHT22;29279;50.858;4.392;2023-02-01T15:28:25;10.30;99.90
43679;DHT22;29279;50.858;4.392;2023-02-01T15:31:02;10.20;99.90
43679;DHT22;29279;50.858;4.392;2023-02-01T15:33:29;10.10;99.90
43679;DHT22;29279;50.858;4.392;2023-02-01T15:36:09;10.10;99.90
43679;DHT22;29279;50.858;4.392;2023-02-01T15:38:38;10.10;99.90
43679;DHT22;29279;50.858;4.392;2023-02-01T15:41:14;10.10;99.90
43679;DHT22;29279;50.858;4.392;2023-02-01T15:43:42;10.10;99.90
43679;DHT22;29279;50.858;4.392;2023-02-01T15:46:14;10.10;99.90
43679;DHT22;29279;50.858;4.392;2023-02-01T15:48:44;10.20;99.90
43679;DHT22;29279;50.858;4.392;2023-02-01T15:51:13;10.20;99.90
43679;DHT22;29279;50.858;4.392;2023-02-01T15:53:54;10.20;99.90
43679;DHT22;29279;50.858;4.392;2023-02-01T15:56:28;10.00;99.90
43679;DHT22;29279;50.858;4.392;2023-02-01T15:58:59;9.90;99.90
43679;DHT22;29279;50.858;4.392;2023-02-01T16:01:25;9.80;99.90
43679;DHT22;29279;50.858;4.392;2023-02-01T16:04:16;9.70;99.90
43679;DHT22;29279;50.858;4.392;2023-02-01T16:06:53;9.70;99.90
43679;DHT22;29279;50.858;4.392;2023-02-01T16:09:22;9.70;99.90
43679;DHT22;29279;50.858;4.392;2023-02-01T16:11:57;9.80;99.90
43679;DHT22;29279;50.858;4.392;2023-02-01T16:14:24;9.80;99.90
43679;DHT22;29279;50.858;4.392;2023-02-01T16:16:52;9.70;99.90
43679;DHT22;29279;50.858;4.392;2023-02-01T16:19:18;9.70;99.90
43679;DHT22;29279;50.858;4.392;2023-02-01T16:21:44;9.70;99.90
43679;DHT22;29279;50.858;4.392;2023-02-01T16:24:11;9.70;99.90
43679;DHT22;29279;50.858;4.392;2023-02-01T16:26:37;9.70;99.90
43679;DHT22;29279;50.858;4.392;2023-02-01T16:29:04;9.80;99.90
43679;DHT22;29279;50.858;4.392;2023-02-01T16:31:37;9.90;99.90
43679;DHT22;29279;50.858;4.392;2023-02-01T16:34:04;10.00;99.90
43679;DHT22;29279;50.858;4.392;2023-02-01T16:36:31;9.90;99.90
43679;DHT22;29279;50.858;4.392;2023-02-01T16:38:57;9.80;99.90
43679;DHT22;29279;50.858;4.392;2023-02-01T16:41:24;9.70;99.90
43679;DHT22;29279;50.858;4.392;2023-02-01T16:43:52;9.70;99.90
43679;DHT22;29279;50.858;4.392;2023-02-01T16:46:20;9.50;99.90
43679;DHT22;29279;50.858;4.392;2023-02-01T16:48:56;9.50;99.90
43679;DHT22;29279;50.858;4.392;2023-02-01T16:51:24;9.50;99.90
43679;DHT22;29279;50.858;4.392;2023-02-01T16:53:51;9.50;99.90
43679;DHT22;29279;50.858;4.392;2023-02-01T16:56:20;9.40;99.90
43679;DHT22;29279;50.858;4.392;2023-02-01T16:58:46;9.50;99.90
43679;DHT22;29279;50.858;4.392;2023-02-01T17:01:14;9.50;99.90
43679;DHT22;29279;50.858;4.392;2023-02-01T17:03:41;9.50;99.90
43679;DHT22;29279;50.858;4.392;2023-02-01T17:06:09;9.60;99.90
43679;DHT22;29279;50.858;4.392;2023-02-01T17:08:43;9.60;99.90
43679;DHT22;29279;50.858;4.392;2023-02-01T17:11:11;9.60;99.90
43679;DHT22;29279;50.858;4.392;2023-02-01T17:13:38;9.60;99.90
43679;DHT22;29279;50.858;4.392;2023-02-01T17:18:38;9.50;99.90
43679;DHT22;29279;50.858;4.392;2023-02-01T17:21:04;9.40;99.90
43679;DHT22;29279;50.858;4.392;2023-02-01T17:23:31;9.40;99.90
43679;DHT22;29279;50.858;4.392;2023-02-01T17:25:57;9.40;99.90
43679;DHT22;29279;50.858;4.392;2023-02-01T17:28:23;9.40;99.90
43679;DHT22;29279;50.858;4.392;2023-02-01T17:30:49;9.40;99.90
43679;DHT22;29279;50.858;4.392;2023-02-01T17:33:26;9.40;99.90
43679;DHT22;29279;50.858;4.392;2023-02-01T17:35:54;9.50;99.90
43679;DHT22;29279;50.858;4.392;2023-02-01T17:38:20;9.40;99.90
43679;DHT22;29279;50.858;4.392;2023-02-01T17:40:46;9.40;99.90
43679;DHT22;29279;50.858;4.392;2023-02-01T17:43:14;9.40;99.90
43679;DHT22;29279;50.858;4.392;2023-02-01T17:45:47;9.40;99.90
43679;DHT22;29279;50.858;4.392;2023-02-01T17:48:20;9.50;99.90
43679;DHT22;29279;50.858;4.392;2023-02-01T17:50:48;9.40;99.90
43679;DHT22;29279;50.858;4.392;2023-02-01T17:53:23;9.30;99.90
43679;DHT22;29279;50.858;4.392;2023-02-01T17:55:50;9.40;99.90
43679;DHT22;29279;50.858;4.392;2023-02-01T17:58:17;9.50;99.90
43679;DHT22;29279;50.858;4.392;2023-02-01T18:00:44;9.50;99.90
43679;DHT22;29279;50.858;4.392;2023-02-01T18:03:30;9.40;99.90
43679;DHT22;29279;50.858;4.392;2023-02-01T18:05:58;9.30;99.90
43679;DHT22;29279;50.858;4.392;2023-02-01T18:08:29;9.40;99.90